sensor_id;sensor_type;location;lat;lon;timestamp;temperature;humidity
4985;DHT22;2509;49.902;8.600;2023-04-15T00:02:13;7.20;99.90
4985;DHT22;2509;49.902;8.600;2023-04-15T00:05:15;7.20;99.90
4985;DHT22;2509;49.902;8.600;2023-04-15T00:08:18;7.10;99.90
4985;DHT22;2509;49.902;8.600;2023-04-15T00:11:20;7.10;99.90
4985;DHT22;2509;49.902;8.600;2023-04-15T00:14:21;7.00;99.90
4985;DHT22;2509;49.902;8.600;2023-04-15T00:17:23;7.00;99.90
4985;DHT22;2509;49.902;8.600;2023-04-15T00:20:25;6.80;99.90
4985;DHT22;2509;49.902;8.600;2023-04-15T00:23:28;6.90;99.90
4985;DHT22;2509;49.902;8.600;2023-04-15T00:26:30;6.90;99.90
4985;DHT22;2509;49.902;8.600;2023-04-15T00:29:33;6.80;99.90
4985;DHT22;2509;49.902;8.600;2023-04-15T00:32:35;6.70;99.90
4985;DHT22;2509;49.902;8.600;2023-04-15T00:35:37;6.60;99.90
4985;DHT22;2509;49.902;8.600;2023-04-15T00:38:40;6.60;99.90
4985;DHT22;2509;49.902;8.600;2023-04-15T00:41:42;6.70;99.90
4985;DHT22;2509;49.902;8.600;2023-04-15T00:44:44;6.70;99.90
4985;DHT22;2509;49.902;8.600;2023-04-15T00:47:45;6.50;99.90
4985;DHT22;2509;49.902;8.600;2023-04-15T00:50:47;6.50;99.90
4985;DHT22;2509;49.902;8.600;2023-04-15T00:53:50;6.50;99.90
4985;DHT22;2509;49.902;8.600;2023-04-15T00:56:52;6.50;99.90
4985;DHT22;2509;49.902;8.600;2023-04-15T00:59:54;6.50;99.90
4985;DHT22;2509;49.902;8.600;2023-04-15T01:02:56;6.50;99.90
4985;DHT22;2509;49.902;8.600;2023-04-15T01:05:59;6.40;99.90
4985;DHT22;2509;49.902;8.600;2023-04-15T01:09:02;6.30;99.90
4985;DHT22;2509;49.902;8.600;2023-04-15T01:12:05;6.20;99.90
4985;DHT22;2509;49.902;8.600;2023-04-15T01:15:08;6.30;99.90
4985;DHT22;2509;49.902;8.600;2023-04-15T01:18:10;6.20;99.90
4985;DHT22;2509;49.902;8.600;2023-04-15T01:21:12;6.30;99.90
4985;DHT22;2509;49.902;8.600;2023-04-15T01:24:17;6.30;99.90
4985;DHT22;2509;49.902;8.600;2023-04-15T01:27:20;6.40;99.90
4985;DHT22;2509;49.902;8.600;2023-04-15T01:30:22;6.20;99.90
4985;DHT22;2509;49.902;8.600;2023-04-15T01:33:24;6.10;99.90
4985;DHT22;2509;49.902;8.600;2023-04-15T01:36:25;6.10;99.90
4985;DHT22;2509;49.902;8.600;2023-04-15T01:39:27;6.20;99.90
4985;DHT22;2509;49.902;8.600;2023-04-15T01:42:30;6.10;99.90
4985;DHT22;2509;49.902;8.600;2023-04-15T01:45:32;6.10;99.90
4985;DHT22;2509;49.902;8.600;2023-04-15T01:48:33;6.10;99.90
4985;DHT22;2509;49.902;8.600;2023-04-15T01:51:36;6.10;99.90
4985;DHT22;2509;49.902;8.600;2023-04-15T01:54:38;6.10;99.90
4985;DHT22;2509;49.902;8.600;2023-04-15T01:57:41;6.10;99.90
4985;DHT22;2509;49.902;8.600;2023-04-15T02:00:43;6.00;99.90
4985;DHT22;2509;49.902;8.600;2023-04-15T02:03:45;5.90;99.90
4985;DHT22;2509;49.902;8.600;2023-04-15T02:06:47;5.80;99.90
4985;DHT22;2509;49.902;8.600;2023-04-15T02:09:48;5.80;99.90
4985;DHT22;2509;49.902;8.600;2023-04-15T02:12:51;5.80;99.90
4985;DHT22;2509;49.902;8.600;2023-04-15T02:15:54;5.90;99.90
4985;DHT22;2509;49.902;8.600;2023-04-15T02:18:56;5.90;99.90
4985;DHT22;2509;49.902;8.600;2023-04-15T02:21:57;5.90;99.90
4985;DHT22;2509;49.902;8.600;2023-04-15T02:25:01;5.90;99.90
4985;DHT22;2509;49.902;8.600;2023-04-15T02:28:04;5.90;99.90
4985;DHT22;2509;49.902;8.600;2023-04-15T02:31:06;5.90;99.90
4985;DHT22;2509;49.902;8.600;2023-04-15T02:34:09;5.90;99.90
4985;DHT22;2509;49.902;8.600;2023-04-15T02:37:11;5.90;99.90
4985;DHT22;2509;49.902;8.600;2023-04-15T02:40:13;5.80;99.90
4985;DHT22;2509;49.902;8.600;2023-04-15T02:43:16;5.80;99.90
4985;DHT22;2509;49.902;8.600;2023-04-15T02:46:18;5.80;99.90
4985;DHT22;2509;49.902;8.600;2023-04-15T02:49:21;5.80;99.90
4985;DHT22;2509;49.902;8.600;2023-04-15T02:52:23;5.70;99.90
4985;DHT22;2509;49.902;8.600;2023-04-15T02:55:25;5.70;99.90
4985;DHT22;2509;49.902;8.600;2023-04-15T02:58:28;5.70;99.90
4985;DHT22;2509;49.902;8.600;2023-04-15T03:01:30;5.70;99.90
4985;DHT22;2509;49.902;8.600;2023-04-15T03:04:31;5.70;99.90
4985;DHT22;2509;49.902;8.600;2023-04-15T03:07:33;5.60;99.90
4985;DHT22;2509;49.902;8.600;2023-04-15T03:10:35;5.50;99.90
4985;DHT22;2509;49.902;8.600;2023-04-15T03:13:38;5.50;99.90
4985;DHT22;2509;49.902;8.600;2023-04-15T03:16:41;5.50;99.90
4985;DHT22;2509;49.902;8.600;2023-04-15T03:19:43;5.50;99.90
4985;DHT22;2509;49.902;8.600;2023-04-15T03:22:44;5.50;99.90
4985;DHT22;2509;49.902;8.600;2023-04-15T03:25:46;5.50;99.90
4985;DHT22;2509;49.902;8.600;2023-04-15T03:28:49;5.50;99.90
4985;DHT22;2509;49.902;8.600;2023-04-15T03:31:51;5.50;99.90
4985;DHT22;2509;49.902;8.600;2023-04-15T03:34:53;5.50;99.90
4985;DHT22;2509;49.902;8.600;2023-04-15T03:37:55;5.40;99.90
4985;DHT22;2509;49.902;8.600;2023-04-15T03:40:57;5.40;99.90
4985;DHT22;2509;49.902;8.600;2023-04-15T03:44:00;5.40;99.90
4985;DHT22;2509;49.902;8.600;2023-04-15T03:47:01;5.40;99.90
4985;DHT22;2509;49.902;8.600;2023-04-15T03:50:04;5.40;99.90
4985;DHT22;2509;49.902;8.600;2023-04-15T03:53:06;5.40;99.90
4985;DHT22;2509;49.902;8.600;2023-04-15T03:56:08;5.30;99.90
4985;DHT22;2509;49.902;8.600;2023-04-15T03:59:11;5.20;99.90
4985;DHT22;2509;49.902;8.600;2023-04-15T04:02:13;5.20;99.90
4985;DHT22;2509;49.902;8.600;2023-04-15T04:05:15;5.20;99.90
4985;DHT22;2509;49.902;8.600;2023-04-15T04:08:16;5.20;99.90
4985;DHT22;2509;49.902;8.600;2023-04-15T04:11:19;5.20;99.90
4985;DHT22;2509;49.902;8.600;2023-04-15T04:14:22;5.20;99.90
4985;DHT22;2509;49.902;8.600;2023-04-15T04:17:28;5.20;99.90
4985;DHT22;2509;49.902;8.600;2023-04-15T04:20:30;5.20;99.90
4985;DHT22;2509;49.902;8.600;2023-04-15T04:23:32;5.10;99.90
4985;DHT22;2509;49.902;8.600;2023-04-15T04:26:34;5.10;99.90
4985;DHT22;2509;49.902;8.600;2023-04-15T04:29:37;5.10;99.90
4985;DHT22;2509;49.902;8.600;2023-04-15T04:32:38;5.20;99.90
4985;DHT22;2509;49.902;8.600;2023-04-15T04:35:40;5.20;99.90
4985;DHT22;2509;49.902;8.600;2023-04-15T04:38:42;5.20;99.90
4985;DHT22;2509;49.902;8.600;2023-04-15T04:41:44;5.20;99.90
4985;DHT22;2509;49.902;8.600;2023-04-15T04:44:47;5.20;99.90
4985;DHT22;2509;49.902;8.600;2023-04-15T04:47:49;5.20;99.90
4985;DHT22;2509;49.902;8.600;2023-04-15T04:50:50;5.20;99.90
4985;DHT22;2509;49.902;8.600;2023-04-15T04:53:53;5.10;99.90
4985;DHT22;2509;49.902;8.600;2023-04-15T04:56:54;5.10;99.90
4985;DHT22;2509;49.902;8.600;2023-04-15T04:59:58;5.10;99.90
4985;DHT22;2509;49.902;8.600;2023-04-15T05:03:00;5.20;99.90
4985;DHT22;2509;49.902;8.600;2023-04-15T05:06:02;5.20;99.90
4985;DHT22;2509;49.902;8.600;2023-04-15T05:09:05;5.20;99.90
4985;DHT22;2509;49.902;8.600;2023-04-15T05:12:07;5.20;99.90
4985;DHT22;2509;49.902;8.600;2023-04-15T05:15:15;5.30;99.90
4985;DHT22;2509;49.902;8.600;2023-04-15T05:18:17;5.30;99.90
4985;DHT22;2509;49.902;8.600;2023-04-15T05:21:19;5.30;99.90
4985;DHT22;2509;49.902;8.600;2023-04-15T05:24:21;5.30;99.90
4985;DHT22;2509;49.902;8.600;2023-04-15T05:27:22;5.30;99.90
4985;DHT22;2509;49.902;8.600;2023-04-15T05:30:26;5.40;99.90
4985;DHT22;2509;49.902;8.600;2023-04-15T05:33:28;5.30;99.90
4985;DHT22;2509;49.902;8.600;2023-04-15T05:36:29;5.30;99.90
4985;DHT22;2509;49.902;8.600;2023-04-15T05:39:31;5.40;99.90
4985;DHT22;2509;49.902;8.600;2023-04-15T05:42:34;5.30;99.90
4985;DHT22;2509;49.902;8.600;2023-04-15T05:45:37;5.40;99.90
4985;DHT22;2509;49.902;8.600;2023-04-15T05:48:39;5.40;99.90
4985;DHT22;2509;49.902;8.600;2023-04-15T05:51:41;5.40;99.90
4985;DHT22;2509;49.902;8.600;2023-04-15T05:54:42;5.40;99.90
4985;DHT22;2509;49.902;8.600;2023-04-15T05:57:44;5.50;99.90
4985;DHT22;2509;49.902;8.600;2023-04-15T06:00:47;5.50;99.90
4985;DHT22;2509;49.902;8.600;2023-04-15T06:03:49;5.60;99.90
4985;DHT22;2509;49.902;8.600;2023-04-15T06:06:51;5.60;99.90
4985;DHT22;2509;49.902;8.600;2023-04-15T06:09:52;5.60;99.90
4985;DHT22;2509;49.902;8.600;2023-04-15T06:12:54;5.60;99.90
4985;DHT22;2509;49.902;8.600;2023-04-15T06:15:57;5.60;99.90
4985;DHT22;2509;49.902;8.600;2023-04-15T06:18:59;5.60;99.90
4985;DHT22;2509;49.902;8.600;2023-04-15T06:22:01;5.70;99.90
4985;DHT22;2509;49.902;8.600;2023-04-15T06:25:03;5.70;99.90
4985;DHT22;2509;49.902;8.600;2023-04-15T06:28:05;5.70;99.90
4985;DHT22;2509;49.902;8.600;2023-04-15T06:31:08;5.80;99.90
4985;DHT22;2509;49.902;8.600;2023-04-15T06:34:10;5.90;99.90
4985;DHT22;2509;49.902;8.600;2023-04-15T06:37:12;6.10;99.90
4985;DHT22;2509;49.902;8.600;2023-04-15T06:40:15;6.30;99.90
4985;DHT22;2509;49.902;8.600;2023-04-15T06:43:17;6.40;99.90
4985;DHT22;2509;49.902;8.600;2023-04-15T06:46:21;6.50;99.90
4985;DHT22;2509;49.902;8.600;2023-04-15T06:49:22;6.60;99.90
4985;DHT22;2509;49.902;8.600;2023-04-15T06:52:24;6.70;99.90
4985;DHT22;2509;49.902;8.600;2023-04-15T06:55:26;6.90;99.90
4985;DHT22;2509;49.902;8.600;2023-04-15T06:58:28;7.00;99.90
4985;DHT22;2509;49.902;8.600;2023-04-15T07:01:31;7.10;99.90
4985;DHT22;2509;49.902;8.600;2023-04-15T07:04:33;7.20;99.90
4985;DHT22;2509;49.902;8.600;2023-04-15T07:07:34;7.30;99.90
4985;DHT22;2509;49.902;8.600;2023-04-15T07:10:36;7.40;99.90
4985;DHT22;2509;49.902;8.600;2023-04-15T07:13:38;7.50;99.90
4985;DHT22;2509;49.902;8.600;2023-04-15T07:16:41;7.60;99.90
4985;DHT22;2509;49.902;8.600;2023-04-15T07:19:43;7.70;99.90
4985;DHT22;2509;49.902;8.600;2023-04-15T07:22:45;7.70;99.90
4985;DHT22;2509;49.902;8.600;2023-04-15T07:25:47;7.80;99.90
4985;DHT22;2509;49.902;8.600;2023-04-15T07:28:49;7.90;99.90
4985;DHT22;2509;49.902;8.600;2023-04-15T07:31:52;8.10;99.90
4985;DHT22;2509;49.902;8.600;2023-04-15T07:34:56;8.30;99.90
4985;DHT22;2509;49.902;8.600;2023-04-15T07:37:58;8.50;99.90
4985;DHT22;2509;49.902;8.600;2023-04-15T07:40:59;8.70;99.90
4985;DHT22;2509;49.902;8.600;2023-04-15T07:44:01;9.00;99.90
4985;DHT22;2509;49.902;8.600;2023-04-15T07:47:04;9.20;99.90
4985;DHT22;2509;49.902;8.600;2023-04-15T07:50:08;9.30;99.90
4985;DHT22;2509;49.902;8.600;2023-04-15T07:53:10;9.60;99.90
4985;DHT22;2509;49.902;8.600;2023-04-15T07:56:11;9.90;99.90
4985;DHT22;2509;49.902;8.600;2023-04-15T07:59:16;10.10;99.90
4985;DHT22;2509;49.902;8.600;2023-04-15T08:02:19;10.30;99.90
4985;DHT22;2509;49.902;8.600;2023-04-15T08:05:21;10.50;99.90
4985;DHT22;2509;49.902;8.600;2023-04-15T08:08:23;10.80;99.90
4985;DHT22;2509;49.902;8.600;2023-04-15T08:11:25;11.00;99.90
4985;DHT22;2509;49.902;8.600;2023-04-15T08:14:28;11.20;99.90
4985;DHT22;2509;49.902;8.600;2023-04-15T08:17:31;11.30;99.90
4985;DHT22;2509;49.902;8.600;2023-04-15T08:20:32;11.50;99.90
4985;DHT22;2509;49.902;8.600;2023-04-15T08:23:34;11.70;99.90
4985;DHT22;2509;49.902;8.600;2023-04-15T08:26:36;11.90;99.90
4985;DHT22;2509;49.902;8.600;2023-04-15T08:29:38;11.90;99.90
4985;DHT22;2509;49.902;8.600;2023-04-15T08:32:41;12.00;99.90
4985;DHT22;2509;49.902;8.600;2023-04-15T08:35:43;12.00;99.90
4985;DHT22;2509;49.902;8.600;2023-04-15T08:38:45;12.00;99.90
4985;DHT22;2509;49.902;8.600;2023-04-15T08:41:50;12.20;99.90
4985;DHT22;2509;49.902;8.600;2023-04-15T08:44:52;12.30;99.90
4985;DHT22;2509;49.902;8.600;2023-04-15T08:47:56;12.40;99.90
4985;DHT22;2509;49.902;8.600;2023-04-15T08:50:59;12.50;99.90
4985;DHT22;2509;49.902;8.600;2023-04-15T08:54:01;12.70;99.90
4985;DHT22;2509;49.902;8.600;2023-04-15T08:57:04;12.70;99.90
4985;DHT22;2509;49.902;8.600;2023-04-15T09:00:07;12.80;99.90
4985;DHT22;2509;49.902;8.600;2023-04-15T09:03:11;12.90;99.90
4985;DHT22;2509;49.902;8.600;2023-04-15T09:06:13;13.00;99.90
4985;DHT22;2509;49.902;8.600;2023-04-15T09:09:16;13.20;99.90
4985;DHT22;2509;49.902;8.600;2023-04-15T09:12:18;13.30;99.90
4985;DHT22;2509;49.902;8.600;2023-04-15T09:15:20;13.30;99.90
4985;DHT22;2509;49.902;8.600;2023-04-15T09:18:31;13.50;99.90
4985;DHT22;2509;49.902;8.600;2023-04-15T09:21:33;13.60;99.90
4985;DHT22;2509;49.902;8.600;2023-04-15T09:24:37;13.80;99.90
4985;DHT22;2509;49.902;8.600;2023-04-15T09:27:47;14.00;99.90
4985;DHT22;2509;49.902;8.600;2023-04-15T09:30:51;14.20;99.90
4985;DHT22;2509;49.902;8.600;2023-04-15T09:33:57;14.50;99.90
4985;DHT22;2509;49.902;8.600;2023-04-15T09:36:59;14.70;99.90
4985;DHT22;2509;49.902;8.600;2023-04-15T09:40:01;14.80;99.90
4985;DHT22;2509;49.902;8.600;2023-04-15T09:43:03;14.80;99.90
4985;DHT22;2509;49.902;8.600;2023-04-15T09:46:06;14.80;99.90
4985;DHT22;2509;49.902;8.600;2023-04-15T09:49:09;15.00;99.90
4985;DHT22;2509;49.902;8.600;2023-04-15T09:52:13;15.10;99.90
4985;DHT22;2509;49.902;8.600;2023-04-15T09:55:17;15.10;99.90
4985;DHT22;2509;49.902;8.600;2023-04-15T09:58:19;15.00;99.90
4985;DHT22;2509;49.902;8.600;2023-04-15T10:01:22;15.00;99.90
4985;DHT22;2509;49.902;8.600;2023-04-15T10:04:26;15.00;99.90
4985;DHT22;2509;49.902;8.600;2023-04-15T10:07:29;14.90;99.90
4985;DHT22;2509;49.902;8.600;2023-04-15T10:10:31;14.80;99.90
4985;DHT22;2509;49.902;8.600;2023-04-15T10:13:34;14.90;99.90
4985;DHT22;2509;49.902;8.600;2023-04-15T10:16:38;14.90;99.90
4985;DHT22;2509;49.902;8.600;2023-04-15T10:19:44;15.00;99.90
4985;DHT22;2509;49.902;8.600;2023-04-15T10:22:46;14.90;99.90
4985;DHT22;2509;49.902;8.600;2023-04-15T10:25:51;14.70;99.90
4985;DHT22;2509;49.902;8.600;2023-04-15T10:28:54;14.60;99.90
4985;DHT22;2509;49.902;8.600;2023-04-15T10:31:56;14.70;99.90
4985;DHT22;2509;49.902;8.600;2023-04-15T10:35:01;14.60;99.90
4985;DHT22;2509;49.902;8.600;2023-04-15T10:38:30;14.40;99.90
4985;DHT22;2509;49.902;8.600;2023-04-15T10:41:32;14.40;99.90
4985;DHT22;2509;49.902;8.600;2023-04-15T10:44:36;14.30;99.90
4985;DHT22;2509;49.902;8.600;2023-04-15T10:47:38;14.30;99.90
4985;DHT22;2509;49.902;8.600;2023-04-15T10:50:55;14.30;99.90
4985;DHT22;2509;49.902;8.600;2023-04-15T10:53:58;14.30;99.90
4985;DHT22;2509;49.902;8.600;2023-04-15T10:57:07;14.20;99.90
4985;DHT22;2509;49.902;8.600;2023-04-15T11:00:11;14.00;99.90
4985;DHT22;2509;49.902;8.600;2023-04-15T11:03:13;14.10;99.90
4985;DHT22;2509;49.902;8.600;2023-04-15T11:06:17;14.10;99.90
4985;DHT22;2509;49.902;8.600;2023-04-15T11:09:30;14.20;99.90
4985;DHT22;2509;49.902;8.600;2023-04-15T11:12:33;14.20;99.90
4985;DHT22;2509;49.902;8.600;2023-04-15T11:15:37;14.30;99.90
4985;DHT22;2509;49.902;8.600;2023-04-15T11:18:40;14.40;99.90
4985;DHT22;2509;49.902;8.600;2023-04-15T11:21:43;14.50;99.90
4985;DHT22;2509;49.902;8.600;2023-04-15T11:24:48;14.50;99.90
4985;DHT22;2509;49.902;8.600;2023-04-15T11:27:50;14.60;99.90
4985;DHT22;2509;49.902;8.600;2023-04-15T11:30:54;14.80;99.90
4985;DHT22;2509;49.902;8.600;2023-04-15T11:33:57;14.80;99.90
4985;DHT22;2509;49.902;8.600;2023-04-15T11:37:03;15.20;99.90
4985;DHT22;2509;49.902;8.600;2023-04-15T11:40:07;15.80;99.90
4985;DHT22;2509;49.902;8.600;2023-04-15T11:43:10;16.10;99.90
4985;DHT22;2509;49.902;8.600;2023-04-15T11:46:12;16.30;99.90
4985;DHT22;2509;49.902;8.600;2023-04-15T11:49:25;16.50;99.90
4985;DHT22;2509;49.902;8.600;2023-04-15T11:52:28;17.20;99.90
4985;DHT22;2509;49.902;8.600;2023-04-15T11:55:32;17.90;95.10
4985;DHT22;2509;49.902;8.600;2023-04-15T11:58:41;18.00;94.30
4985;DHT22;2509;49.902;8.600;2023-04-15T12:01:44;17.80;93.70
4985;DHT22;2509;49.902;8.600;2023-04-15T12:04:47;17.00;92.80
4985;DHT22;2509;49.902;8.600;2023-04-15T12:07:59;16.90;94.10
4985;DHT22;2509;49.902;8.600;2023-04-15T12:11:01;16.60;94.30
4985;DHT22;2509;49.902;8.600;2023-04-15T12:14:06;16.40;94.50
4985;DHT22;2509;49.902;8.600;2023-04-15T12:17:09;16.00;96.20
4985;DHT22;2509;49.902;8.600;2023-04-15T12:20:12;15.70;96.70
4985;DHT22;2509;49.902;8.600;2023-04-15T12:23:18;15.50;98.60
4985;DHT22;2509;49.902;8.600;2023-04-15T12:26:25;15.40;99.90
4985;DHT22;2509;49.902;8.600;2023-04-15T12:29:29;15.50;99.90
4985;DHT22;2509;49.902;8.600;2023-04-15T12:32:34;15.50;99.90
4985;DHT22;2509;49.902;8.600;2023-04-15T12:35:36;15.30;99.90
4985;DHT22;2509;49.902;8.600;2023-04-15T12:38:39;15.00;99.90
4985;DHT22;2509;49.902;8.600;2023-04-15T12:41:41;14.70;99.90
4985;DHT22;2509;49.902;8.600;2023-04-15T12:44:43;14.50;99.90
4985;DHT22;2509;49.902;8.600;2023-04-15T12:47:45;14.10;99.90
4985;DHT22;2509;49.902;8.600;2023-04-15T12:50:46;13.90;99.90
4985;DHT22;2509;49.902;8.600;2023-04-15T12:53:50;13.60;99.90
4985;DHT22;2509;49.902;8.600;2023-04-15T12:56:52;13.40;99.90
4985;DHT22;2509;49.902;8.600;2023-04-15T12:59:54;13.40;99.90
4985;DHT22;2509;49.902;8.600;2023-04-15T13:02:56;13.40;99.90
4985;DHT22;2509;49.902;8.600;2023-04-15T13:05:58;13.40;99.90
4985;DHT22;2509;49.902;8.600;2023-04-15T13:09:03;13.50;99.90
4985;DHT22;2509;49.902;8.600;2023-04-15T13:12:05;13.50;99.90
4985;DHT22;2509;49.902;8.600;2023-04-15T13:15:08;13.40;99.90
4985;DHT22;2509;49.902;8.600;2023-04-15T13:18:14;13.50;99.90
4985;DHT22;2509;49.902;8.600;2023-04-15T13:21:16;13.40;99.90
4985;DHT22;2509;49.902;8.600;2023-04-15T13:24:20;13.30;99.90
4985;DHT22;2509;49.902;8.600;2023-04-15T13:27:22;13.20;99.90
4985;DHT22;2509;49.902;8.600;2023-04-15T13:30:23;13.10;99.90
4985;DHT22;2509;49.902;8.600;2023-04-15T13:33:25;12.80;99.90
4985;DHT22;2509;49.902;8.600;2023-04-15T13:36:27;12.80;99.90
4985;DHT22;2509;49.902;8.600;2023-04-15T13:39:30;12.70;99.90
4985;DHT22;2509;49.902;8.600;2023-04-15T13:42:32;12.60;99.90
4985;DHT22;2509;49.902;8.600;2023-04-15T13:45:34;12.50;99.90
4985;DHT22;2509;49.902;8.600;2023-04-15T13:48:36;12.50;99.90
4985;DHT22;2509;49.902;8.600;2023-04-15T13:51:37;12.50;99.90
4985;DHT22;2509;49.902;8.600;2023-04-15T13:54:41;12.50;99.90
4985;DHT22;2509;49.902;8.600;2023-04-15T13:57:43;12.70;99.90
4985;DHT22;2509;49.902;8.600;2023-04-15T14:00:45;12.70;99.90
4985;DHT22;2509;49.902;8.600;2023-04-15T14:03:46;12.80;99.90
4985;DHT22;2509;49.902;8.600;2023-04-15T14:06:48;12.80;99.90
4985;DHT22;2509;49.902;8.600;2023-04-15T14:09:51;12.80;99.90
4985;DHT22;2509;49.902;8.600;2023-04-15T14:12:53;12.90;99.90
4985;DHT22;2509;49.902;8.600;2023-04-15T14:15:56;12.80;99.90
4985;DHT22;2509;49.902;8.600;2023-04-15T14:18:58;12.80;99.90
4985;DHT22;2509;49.902;8.600;2023-04-15T14:21:59;12.80;99.90
4985;DHT22;2509;49.902;8.600;2023-04-15T14:25:05;12.70;99.90
4985;DHT22;2509;49.902;8.600;2023-04-15T14:28:07;12.60;99.90
4985;DHT22;2509;49.902;8.600;2023-04-15T14:31:08;12.50;99.90
4985;DHT22;2509;49.902;8.600;2023-04-15T14:34:10;12.40;99.90
4985;DHT22;2509;49.902;8.600;2023-04-15T14:37:12;12.30;99.90
4985;DHT22;2509;49.902;8.600;2023-04-15T14:40:15;12.30;99.90
4985;DHT22;2509;49.902;8.600;2023-04-15T14:43:17;12.10;99.90
4985;DHT22;2509;49.902;8.600;2023-04-15T14:46:19;12.00;99.90
4985;DHT22;2509;49.902;8.600;2023-04-15T14:49:20;11.80;99.90
4985;DHT22;2509;49.902;8.600;2023-04-15T14:52:23;11.80;99.90
4985;DHT22;2509;49.902;8.600;2023-04-15T14:55:26;11.70;99.90
4985;DHT22;2509;49.902;8.600;2023-04-15T14:58:27;11.60;99.90
4985;DHT22;2509;49.902;8.600;2023-04-15T15:01:29;11.50;99.90
4985;DHT22;2509;49.902;8.600;2023-04-15T15:04:31;11.60;99.90
4985;DHT22;2509;49.902;8.600;2023-04-15T15:07:54;11.50;99.90
4985;DHT22;2509;49.902;8.600;2023-04-15T15:11:28;11.50;99.90
4985;DHT22;2509;49.902;8.600;2023-04-15T15:14:30;11.50;99.90
4985;DHT22;2509;49.902;8.600;2023-04-15T15:17:33;11.50;99.90
4985;DHT22;2509;49.902;8.600;2023-04-15T15:20:35;11.40;99.90
4985;DHT22;2509;49.902;8.600;2023-04-15T15:23:37;11.40;99.90
4985;DHT22;2509;49.902;8.600;2023-04-15T15:26:40;11.40;99.90
4985;DHT22;2509;49.902;8.600;2023-04-15T15:29:42;11.40;99.90
4985;DHT22;2509;49.902;8.600;2023-04-15T15:32:44;11.40;99.90
4985;DHT22;2509;49.902;8.600;2023-04-15T15:35:46;11.40;99.90
4985;DHT22;2509;49.902;8.600;2023-04-15T15:38:47;11.40;99.90
4985;DHT22;2509;49.902;8.600;2023-04-15T15:41:50;11.40;99.90
4985;DHT22;2509;49.902;8.600;2023-04-15T15:44:52;11.30;99.90
4985;DHT22;2509;49.902;8.600;2023-04-15T15:47:54;11.20;99.90
4985;DHT22;2509;49.902;8.600;2023-04-15T15:50:57;11.20;99.90
4985;DHT22;2509;49.902;8.600;2023-04-15T15:53:59;11.10;99.90
4985;DHT22;2509;49.902;8.600;2023-04-15T15:57:02;11.10;99.90
4985;DHT22;2509;49.902;8.600;2023-04-15T16:00:05;11.10;99.90
4985;DHT22;2509;49.902;8.600;2023-04-15T16:03:07;11.00;99.90
4985;DHT22;2509;49.902;8.600;2023-04-15T16:06:09;11.00;99.90
4985;DHT22;2509;49.902;8.600;2023-04-15T16:09:11;10.90;99.90
4985;DHT22;2509;49.902;8.600;2023-04-15T16:12:14;10.90;99.90
4985;DHT22;2509;49.902;8.600;2023-04-15T16:15:16;10.80;99.90
4985;DHT22;2509;49.902;8.600;2023-04-15T16:18:17;10.80;99.90
4985;DHT22;2509;49.902;8.600;2023-04-15T16:21:19;10.70;99.90
4985;DHT22;2509;49.902;8.600;2023-04-15T16:24:22;10.60;99.90
4985;DHT22;2509;49.902;8.600;2023-04-15T16:27:26;10.50;99.90
4985;DHT22;2509;49.902;8.600;2023-04-15T16:30:28;10.40;99.90
4985;DHT22;2509;49.902;8.600;2023-04-15T16:33:31;10.40;99.90
4985;DHT22;2509;49.902;8.600;2023-04-15T16:36:33;10.30;99.90
4985;DHT22;2509;49.902;8.600;2023-04-15T16:39:35;10.20;99.90
4985;DHT22;2509;49.902;8.600;2023-04-15T16:42:38;10.10;99.90
4985;DHT22;2509;49.902;8.600;2023-04-15T16:45:42;10.10;99.90
4985;DHT22;2509;49.902;8.600;2023-04-15T16:48:50;10.10;99.90
4985;DHT22;2509;49.902;8.600;2023-04-15T16:51:51;10.10;99.90
4985;DHT22;2509;49.902;8.600;2023-04-15T16:54:53;10.00;99.90
4985;DHT22;2509;49.902;8.600;2023-04-15T16:57:56;10.00;99.90
4985;DHT22;2509;49.902;8.600;2023-04-15T17:00:58;10.00;99.90
4985;DHT22;2509;49.902;8.600;2023-04-15T17:04:00;10.00;99.90
4985;DHT22;2509;49.902;8.600;2023-04-15T17:07:02;9.90;99.90
4985;DHT22;2509;49.902;8.600;2023-04-15T17:10:04;9.90;99.90
4985;DHT22;2509;49.902;8.600;2023-04-15T17:13:08;9.80;99.90
4985;DHT22;2509;49.902;8.600;2023-04-15T17:16:09;9.70;99.90
4985;DHT22;2509;49.902;8.600;2023-04-15T17:19:11;9.70;99.90
4985;DHT22;2509;49.902;8.600;2023-04-15T17:22:13;9.70;99.90
4985;DHT22;2509;49.902;8.600;2023-04-15T17:25:15;9.70;99.90
4985;DHT22;2509;49.902;8.600;2023-04-15T17:28:18;9.70;99.90
4985;DHT22;2509;49.902;8.600;2023-04-15T17:31:20;9.70;99.90
4985;DHT22;2509;49.902;8.600;2023-04-15T17:34:22;9.70;99.90
4985;DHT22;2509;49.902;8.600;2023-04-15T17:37:23;9.60;99.90
4985;DHT22;2509;49.902;8.600;2023-04-15T17:40:26;9.60;99.90
4985;DHT22;2509;49.902;8.600;2023-04-15T17:43:29;9.60;99.90
4985;DHT22;2509;49.902;8.600;2023-04-15T17:46:31;9.60;99.90
4985;DHT22;2509;49.902;8.600;2023-04-15T17:49:33;9.60;99.90
4985;DHT22;2509;49.902;8.600;2023-04-15T17:52:37;9.60;99.90
4985;DHT22;2509;49.902;8.600;2023-04-15T17:55:38;9.60;99.90
4985;DHT22;2509;49.902;8.600;2023-04-15T17:58:42;9.50;99.90
4985;DHT22;2509;49.902;8.600;2023-04-15T18:01:44;9.60;99.90
4985;DHT22;2509;49.902;8.600;2023-04-15T18:04:46;9.60;99.90
4985;DHT22;2509;49.902;8.600;2023-04-15T18:07:49;9.60;99.90
4985;DHT22;2509;49.902;8.600;2023-04-15T18:10:51;9.60;99.90
4985;DHT22;2509;49.902;8.600;2023-04-15T18:13:54;9.50;99.90
4985;DHT22;2509;49.902;8.600;2023-04-15T18:16:56;9.50;99.90
4985;DHT22;2509;49.902;8.600;2023-04-15T18:19:58;9.50;99.90
4985;DHT22;2509;49.902;8.600;2023-04-15T18:22:59;9.50;99.90
4985;DHT22;2509;49.902;8.600;2023-04-15T18:26:01;9.60;99.90
4985;DHT22;2509;49.902;8.600;2023-04-15T18:29:04;9.60;99.90
4985;DHT22;2509;49.902;8.600;2023-04-15T18:32:06;9.60;99.90
4985;DHT22;2509;49.902;8.600;2023-04-15T18:35:08;9.60;99.90
4985;DHT22;2509;49.902;8.600;2023-04-15T18:38:10;9.60;99.90
4985;DHT22;2509;49.902;8.600;2023-04-15T18:41:12;9.50;99.90
4985;DHT22;2509;49.902;8.600;2023-04-15T18:44:15;9.60;99.90
4985;DHT22;2509;49.902;8.600;2023-04-15T18:47:17;9.60;99.90
4985;DHT22;2509;49.902;8.600;2023-04-15T18:50:19;9.50;99.90
4985;DHT22;2509;49.902;8.600;2023-04-15T18:53:20;9.50;99.90
4985;DHT22;2509;49.902;8.600;2023-04-15T18:56:22;9.50;99.90
4985;DHT22;2509;49.902;8.600;2023-04-15T18:59:25;9.50;99.90
4985;DHT22;2509;49.902;8.600;2023-04-15T19:02:27;9.40;99.90
4985;DHT22;2509;49.902;8.600;2023-04-15T19:05:29;9.40;99.90
4985;DHT22;2509;49.902;8.600;2023-04-15T19:08:31;9.40;99.90
4985;DHT22;2509;49.902;8.600;2023-04-15T19:11:33;9.40;99.90
4985;DHT22;2509;49.902;8.600;2023-04-15T19:14:36;9.40;99.90
4985;DHT22;2509;49.902;8.600;2023-04-15T19:17:37;9.40;99.90
4985;DHT22;2509;49.902;8.600;2023-04-15T19:20:39;9.40;99.90
4985;DHT22;2509;49.902;8.600;2023-04-15T19:23:41;9.40;99.90
4985;DHT22;2509;49.902;8.600;2023-04-15T19:26:43;9.40;99.90
4985;DHT22;2509;49.902;8.600;2023-04-15T19:29:46;9.30;99.90
4985;DHT22;2509;49.902;8.600;2023-04-15T19:32:48;9.30;99.90
4985;DHT22;2509;49.902;8.600;2023-04-15T19:35:50;9.30;99.90
4985;DHT22;2509;49.902;8.600;2023-04-15T19:38:51;9.30;99.90
4985;DHT22;2509;49.902;8.600;2023-04-15T19:41:53;9.30;99.90
4985;DHT22;2509;49.902;8.600;2023-04-15T19:44:57;9.30;99.90
4985;DHT22;2509;49.902;8.600;2023-04-15T19:47:59;9.30;99.90
4985;DHT22;2509;49.902;8.600;2023-04-15T19:51:00;9.30;99.90
4985;DHT22;2509;49.902;8.600;2023-04-15T19:54:02;9.30;99.90
4985;DHT22;2509;49.902;8.600;2023-04-15T19:57:04;9.20;99.90
4985;DHT22;2509;49.902;8.600;2023-04-15T20:00:09;9.20;99.90
4985;DHT22;2509;49.902;8.600;2023-04-15T20:03:11;9.30;99.90